createdAt,value
2017-06-04T00:00:16.920Z,25.55
2017-06-04T00:01:19.231Z,25.55
2017-06-04T00:02:20.667Z,25.39
2017-06-04T00:03:22.110Z,25.36
2017-06-04T00:04:23.532Z,25.33
2017-06-04T00:05:24.969Z,25.39
2017-06-04T00:06:26.398Z,25.33
2017-06-04T00:07:27.840Z,25.32
2017-06-04T00:08:29.282Z,25.33
2017-06-04T00:09:30.712Z,25.32
2017-06-04T00:10:32.156Z,25.36
2017-06-04T00:11:33.590Z,25.30
2017-06-04T00:12:35.024Z,25.38
2017-06-04T00:13:36.459Z,25.30
2017-06-04T00:14:37.900Z,25.30
2017-06-04T00:15:39.335Z,25.24
2017-06-04T00:16:40.783Z,25.24
2017-06-04T00:17:42.221Z,25.24
2017-06-04T00:18:43.656Z,25.21
2017-06-04T00:19:45.101Z,25.23
2017-06-04T00:20:46.538Z,25.24
2017-06-04T00:21:47.967Z,25.28
2017-06-04T00:22:49.397Z,25.30
2017-06-04T00:23:50.832Z,25.32
2017-06-04T00:24:52.275Z,25.32
2017-06-04T00:25:53.705Z,25.21
2017-06-04T00:26:55.143Z,25.21
2017-06-04T00:27:56.577Z,25.25
2017-06-04T00:28:58.014Z,25.23
2017-06-04T00:29:59.450Z,25.27
2017-06-04T00:31:00.882Z,25.21
2017-06-04T00:32:02.314Z,25.20
2017-06-04T00:33:03.747Z,25.23
2017-06-04T00:34:05.180Z,25.21
2017-06-04T00:35:06.617Z,25.09
2017-06-04T00:36:08.046Z,25.18
2017-06-04T00:37:09.480Z,25.13
2017-06-04T00:38:10.910Z,25.15
2017-06-04T00:39:12.346Z,25.17
2017-06-04T00:40:13.780Z,25.18
2017-06-04T00:41:15.214Z,25.21
2017-06-04T00:42:16.652Z,25.10
2017-06-04T00:43:18.083Z,25.15
2017-06-04T00:44:19.511Z,25.17
2017-06-04T00:45:20.945Z,25.13
2017-06-04T00:46:22.380Z,25.14
2017-06-04T00:47:23.811Z,25.09
2017-06-04T00:48:25.252Z,25.18
2017-06-04T00:49:26.706Z,25.10
2017-06-04T00:50:28.136Z,25.08
2017-06-04T00:51:29.568Z,25.05
2017-06-04T00:52:31.039Z,25.06
2017-06-04T00:53:32.472Z,25.06
2017-06-04T00:54:33.911Z,25.06
2017-06-04T00:55:35.349Z,25.13
2017-06-04T00:56:36.794Z,25.13
2017-06-04T00:57:38.223Z,25.10
2017-06-04T00:58:39.658Z,25.02
2017-06-04T00:59:41.098Z,25.06
2017-06-04T01:00:42.554Z,25.03
2017-06-04T01:01:43.994Z,25.03
2017-06-04T01:02:45.426Z,25.06
2017-06-04T01:03:46.883Z,24.99
2017-06-04T01:04:48.311Z,25.02
2017-06-04T01:05:49.761Z,24.99
2017-06-04T01:06:51.194Z,25.00
2017-06-04T01:07:52.661Z,24.95
2017-06-04T01:08:54.097Z,25.00
2017-06-04T01:09:55.541Z,25.03
2017-06-04T01:10:56.978Z,24.99
2017-06-04T01:11:58.411Z,24.99
2017-06-04T01:12:59.851Z,24.87
2017-06-04T01:14:01.283Z,24.93
2017-06-04T01:15:02.767Z,24.85
2017-06-04T01:16:04.204Z,24.93
2017-06-04T01:17:05.644Z,24.84
2017-06-04T01:18:07.115Z,24.95
2017-06-04T01:19:08.574Z,24.85
2017-06-04T01:20:10.000Z,24.90
2017-06-04T01:21:11.437Z,24.87
2017-06-04T01:22:12.872Z,24.90
2017-06-04T01:23:14.309Z,24.87
2017-06-04T01:24:15.744Z,24.90
2017-06-04T01:25:17.206Z,24.88
2017-06-04T01:26:18.644Z,24.88
2017-06-04T01:27:20.077Z,24.84
2017-06-04T01:28:21.507Z,24.88
2017-06-04T01:29:22.942Z,24.85
2017-06-04T01:30:24.380Z,24.84
2017-06-04T01:31:25.818Z,24.85
2017-06-04T01:32:27.261Z,24.88
2017-06-04T01:33:28.692Z,24.87
2017-06-04T01:34:30.124Z,24.81
2017-06-04T01:35:31.559Z,24.81
2017-06-04T01:36:32.994Z,24.78
2017-06-04T01:37:34.497Z,24.78
2017-06-04T01:38:35.935Z,24.81
2017-06-04T01:39:37.376Z,24.78
2017-06-04T01:40:39.532Z,24.80
2017-06-04T01:41:40.967Z,24.81
2017-06-04T01:42:42.397Z,24.76
2017-06-04T01:43:43.832Z,24.71
2017-06-04T01:44:45.261Z,24.77
2017-06-04T01:45:46.699Z,24.62
2017-06-04T01:46:48.132Z,24.71
2017-06-04T01:47:49.563Z,24.69
2017-06-04T01:48:50.995Z,24.65
2017-06-04T01:49:52.425Z,24.71
2017-06-04T01:50:53.864Z,24.73
2017-06-04T01:51:55.303Z,24.68
2017-06-04T01:52:56.741Z,24.57
2017-06-04T01:53:58.175Z,24.58
2017-06-04T01:55:00.103Z,24.60
2017-06-04T01:56:01.537Z,24.58
2017-06-04T01:57:02.969Z,24.61
2017-06-04T01:58:04.403Z,24.58
2017-06-04T01:59:05.845Z,24.60
2017-06-04T02:00:07.283Z,24.57
2017-06-04T02:01:08.721Z,24.49
2017-06-04T02:02:10.156Z,24.57
2017-06-04T02:03:11.595Z,24.49
2017-06-04T02:04:13.036Z,24.50
2017-06-04T02:05:14.499Z,24.55
2017-06-04T02:06:15.935Z,24.53
2017-06-04T02:07:17.367Z,24.55
2017-06-04T02:08:18.805Z,24.47
2017-06-04T02:09:20.240Z,24.57
2017-06-04T02:10:21.670Z,24.46
2017-06-04T02:11:23.164Z,24.49
2017-06-04T02:12:24.599Z,24.46
2017-06-04T02:13:26.044Z,24.47
2017-06-04T02:14:27.480Z,24.47
2017-06-04T02:15:28.919Z,24.49
2017-06-04T02:16:30.383Z,24.47
2017-06-04T02:17:31.789Z,24.49
2017-06-04T02:18:33.225Z,24.52
2017-06-04T02:19:34.716Z,24.49
2017-06-04T02:20:36.147Z,24.52
2017-06-04T02:21:37.591Z,24.49
2017-06-04T02:22:39.029Z,24.50
2017-06-04T02:23:40.471Z,24.49
2017-06-04T02:24:41.900Z,24.50
2017-06-04T02:25:43.334Z,24.52
2017-06-04T02:26:44.769Z,24.55
2017-06-04T02:27:46.206Z,24.52
2017-06-04T02:28:47.635Z,24.50
2017-06-04T02:29:49.070Z,24.43
2017-06-04T02:30:50.513Z,24.43
2017-06-04T02:31:51.946Z,24.42
2017-06-04T02:32:53.381Z,24.40
2017-06-04T02:33:54.814Z,24.43
2017-06-04T02:34:56.248Z,24.39
2017-06-04T02:35:57.684Z,24.43
2017-06-04T02:36:59.115Z,24.40
2017-06-04T02:38:00.555Z,24.37
2017-06-04T02:39:01.986Z,24.40
2017-06-04T02:40:03.419Z,24.42
2017-06-04T02:41:04.856Z,24.43
2017-06-04T02:42:06.286Z,24.43
2017-06-04T02:43:07.721Z,24.40
2017-06-04T02:44:09.154Z,24.35
2017-06-04T02:45:10.587Z,24.37
2017-06-04T02:46:12.014Z,24.45
2017-06-04T02:47:13.449Z,24.47
2017-06-04T02:48:14.887Z,24.34
2017-06-04T02:49:16.326Z,24.35
2017-06-04T02:50:17.766Z,24.28
2017-06-04T02:51:19.204Z,24.40
2017-06-04T02:52:20.645Z,24.42
2017-06-04T02:53:22.073Z,24.40
2017-06-04T02:54:23.506Z,24.25
2017-06-04T02:55:24.943Z,24.32
2017-06-04T02:56:26.389Z,24.28
2017-06-04T02:57:27.813Z,24.45
2017-06-04T02:58:29.244Z,24.42
2017-06-04T02:59:30.682Z,24.32
2017-06-04T03:00:32.112Z,24.39
2017-06-04T03:01:33.557Z,24.45
2017-06-04T03:02:34.991Z,24.35
2017-06-04T03:03:36.424Z,24.32
2017-06-04T03:04:37.863Z,24.31
2017-06-04T03:05:39.297Z,24.31
2017-06-04T03:06:40.730Z,24.37
2017-06-04T03:07:42.160Z,24.40
2017-06-04T03:08:43.595Z,24.43
2017-06-04T03:09:45.029Z,24.39
2017-06-04T03:10:46.464Z,24.46
2017-06-04T03:11:47.899Z,24.37
2017-06-04T03:12:49.336Z,24.34
2017-06-04T03:13:50.775Z,24.35
2017-06-04T03:14:52.202Z,24.32
2017-06-04T03:15:53.633Z,24.35
2017-06-04T03:16:55.066Z,24.35
2017-06-04T03:17:56.498Z,24.45
2017-06-04T03:18:57.941Z,24.42
2017-06-04T03:19:59.381Z,24.37
2017-06-04T03:21:00.810Z,24.37
2017-06-04T03:22:02.242Z,24.28
2017-06-04T03:23:03.677Z,24.43
2017-06-04T03:24:05.114Z,24.35
2017-06-04T03:25:06.552Z,24.30
2017-06-04T03:26:07.999Z,24.31
2017-06-04T03:27:09.423Z,24.25
2017-06-04T03:28:10.860Z,24.28
2017-06-04T03:29:12.288Z,24.28
2017-06-04T03:30:13.719Z,24.40
2017-06-04T03:31:15.151Z,24.25
2017-06-04T03:32:16.581Z,24.31
2017-06-04T03:33:18.017Z,24.30
2017-06-04T03:34:19.460Z,24.27
2017-06-04T03:35:20.888Z,24.31
2017-06-04T03:36:22.320Z,24.28
2017-06-04T03:37:23.751Z,24.30
2017-06-04T03:38:25.181Z,24.30
2017-06-04T03:39:26.616Z,24.25
2017-06-04T03:40:28.063Z,24.22
2017-06-04T03:41:29.497Z,24.27
2017-06-04T03:42:30.933Z,24.27
2017-06-04T03:43:32.361Z,24.24
2017-06-04T03:44:33.797Z,24.31
2017-06-04T03:45:35.229Z,24.24
2017-06-04T03:46:36.662Z,24.28
2017-06-04T03:47:38.098Z,24.25
2017-06-04T03:48:39.561Z,24.27
2017-06-04T03:49:40.973Z,24.30
2017-06-04T03:50:42.401Z,24.24
2017-06-04T03:51:43.836Z,24.24
2017-06-04T03:52:45.266Z,24.28
2017-06-04T03:53:46.699Z,24.24
2017-06-04T03:54:48.129Z,24.27
2017-06-04T03:55:49.560Z,24.27
2017-06-04T03:56:50.991Z,24.22
2017-06-04T03:57:52.429Z,24.31
2017-06-04T03:58:53.860Z,24.22
2017-06-04T03:59:55.293Z,24.22
2017-06-04T04:00:56.724Z,24.32
2017-06-04T04:01:58.167Z,24.31
2017-06-04T04:02:59.603Z,24.28
2017-06-04T04:04:01.041Z,24.21
2017-06-04T04:05:02.476Z,24.28
2017-06-04T04:06:03.909Z,24.25
2017-06-04T04:07:05.348Z,24.24
2017-06-04T04:08:06.786Z,24.28
2017-06-04T04:09:08.222Z,24.24
2017-06-04T04:10:09.659Z,24.21
2017-06-04T04:11:11.094Z,24.20
2017-06-04T04:12:12.556Z,24.22
2017-06-04T04:13:13.990Z,24.21
2017-06-04T04:14:15.424Z,24.21
2017-06-04T04:15:16.866Z,24.18
2017-06-04T04:16:18.303Z,24.27
2017-06-04T04:17:19.740Z,24.13
2017-06-04T04:18:21.174Z,24.18
2017-06-04T04:19:22.623Z,24.13
2017-06-04T04:20:24.053Z,24.21
2017-06-04T04:21:25.487Z,24.16
2017-06-04T04:22:26.926Z,24.15
2017-06-04T04:23:28.367Z,24.12
2017-06-04T04:24:29.807Z,24.15
2017-06-04T04:25:31.239Z,24.12
2017-06-04T04:26:32.768Z,24.10
2017-06-04T04:27:34.208Z,24.13
2017-06-04T04:28:35.644Z,24.09
2017-06-04T04:29:37.076Z,24.10
2017-06-04T04:30:38.511Z,24.10
2017-06-04T04:31:39.964Z,24.13
2017-06-04T04:32:41.385Z,24.03
2017-06-04T04:33:42.832Z,24.06
2017-06-04T04:34:44.264Z,24.02
2017-06-04T04:35:45.705Z,24.08
2017-06-04T04:36:47.147Z,24.02
2017-06-04T04:37:48.587Z,24.03
2017-06-04T04:38:50.018Z,24.00
2017-06-04T04:39:51.448Z,24.05
2017-06-04T04:40:52.887Z,23.97
2017-06-04T04:41:54.318Z,23.95
2017-06-04T04:42:55.752Z,24.00
2017-06-04T04:43:57.195Z,23.97
2017-06-04T04:44:58.636Z,23.93
2017-06-04T04:46:00.072Z,23.91
2017-06-04T04:47:01.507Z,23.97
2017-06-04T04:48:02.939Z,23.90
2017-06-04T04:49:04.367Z,23.93
2017-06-04T04:50:05.803Z,23.91
2017-06-04T04:51:07.234Z,23.90
2017-06-04T04:52:08.672Z,23.91
2017-06-04T04:53:10.104Z,23.93
2017-06-04T04:54:11.538Z,23.93
2017-06-04T04:55:12.971Z,23.83
2017-06-04T04:56:14.411Z,23.80
2017-06-04T04:57:15.845Z,23.85
2017-06-04T04:58:17.278Z,23.87
2017-06-04T04:59:18.717Z,23.87
2017-06-04T05:00:20.153Z,23.88
2017-06-04T05:01:21.591Z,23.80
2017-06-04T05:02:23.020Z,23.87
2017-06-04T05:03:24.458Z,23.85
2017-06-04T05:04:25.890Z,23.76
2017-06-04T05:05:27.320Z,23.88
2017-06-04T05:06:28.757Z,23.88
2017-06-04T05:07:30.195Z,23.73
2017-06-04T05:08:31.635Z,23.75
2017-06-04T05:09:33.068Z,23.76
2017-06-04T05:10:34.509Z,23.73
2017-06-04T05:11:35.946Z,23.76
2017-06-04T05:12:37.387Z,23.79
2017-06-04T05:13:38.828Z,23.75
2017-06-04T05:14:40.270Z,23.85
2017-06-04T05:15:41.705Z,23.72
2017-06-04T05:16:43.129Z,23.73
2017-06-04T05:17:44.563Z,23.78
2017-06-04T05:18:46.003Z,23.79
2017-06-04T05:19:47.440Z,23.69
2017-06-04T05:20:48.878Z,23.72
2017-06-04T05:21:50.308Z,23.69
2017-06-04T05:22:51.748Z,23.69
2017-06-04T05:23:53.179Z,23.68
2017-06-04T05:24:54.613Z,23.66
2017-06-04T05:25:56.052Z,23.78
2017-06-04T05:26:57.485Z,23.75
2017-06-04T05:27:58.930Z,23.72
2017-06-04T05:29:00.367Z,23.70
2017-06-04T05:30:01.813Z,23.79
2017-06-04T05:31:03.242Z,23.65
2017-06-04T05:32:04.676Z,23.69
2017-06-04T05:33:06.102Z,23.65
2017-06-04T05:34:07.542Z,23.75
2017-06-04T05:35:08.975Z,23.68
2017-06-04T05:36:10.416Z,23.76
2017-06-04T05:37:11.848Z,23.65
2017-06-04T05:38:13.284Z,23.68
2017-06-04T05:39:14.719Z,23.70
2017-06-04T05:40:16.156Z,23.66
2017-06-04T05:41:17.588Z,23.63
2017-06-04T05:42:19.026Z,23.66
2017-06-04T05:43:20.461Z,23.70
2017-06-04T05:44:21.890Z,23.69
2017-06-04T05:45:23.319Z,23.69
2017-06-04T05:46:24.754Z,23.69
2017-06-04T05:47:26.191Z,23.73
2017-06-04T05:48:27.620Z,23.76
2017-06-04T05:49:29.057Z,23.73
2017-06-04T05:50:30.495Z,23.72
2017-06-04T05:51:31.933Z,23.72
2017-06-04T05:52:33.366Z,23.69
2017-06-04T05:53:34.801Z,23.72
2017-06-04T05:54:36.232Z,23.72
2017-06-04T05:55:37.663Z,23.75
2017-06-04T05:56:39.103Z,23.78
2017-06-04T05:57:40.538Z,23.70
2017-06-04T05:58:41.968Z,23.69
2017-06-04T05:59:43.406Z,23.78
2017-06-04T06:00:44.839Z,23.76
2017-06-04T06:01:46.273Z,23.69
2017-06-04T06:02:47.715Z,23.68
2017-06-04T06:03:49.154Z,23.69
2017-06-04T06:04:50.585Z,23.76
2017-06-04T06:05:52.019Z,23.69
2017-06-04T06:06:53.463Z,23.68
2017-06-04T06:07:54.887Z,23.69
2017-06-04T06:08:56.322Z,23.72
2017-06-04T06:09:57.764Z,23.65
2017-06-04T06:10:59.204Z,23.69
2017-06-04T06:12:00.643Z,23.72
2017-06-04T06:13:02.077Z,23.79
2017-06-04T06:14:03.511Z,23.76
2017-06-04T06:15:04.950Z,23.73
2017-06-04T06:16:06.391Z,23.72
2017-06-04T06:17:07.826Z,23.69
2017-06-04T06:18:09.258Z,23.61
2017-06-04T06:19:10.692Z,23.66
2017-06-04T06:20:12.124Z,23.75
2017-06-04T06:21:13.562Z,23.66
2017-06-04T06:22:15.006Z,23.58
2017-06-04T06:23:16.442Z,23.63
2017-06-04T06:24:17.885Z,23.68
2017-06-04T06:25:19.323Z,23.69
2017-06-04T06:26:20.756Z,23.58
2017-06-04T06:27:22.191Z,23.53
2017-06-04T06:28:23.627Z,23.55
2017-06-04T06:29:25.063Z,23.53
2017-06-04T06:30:26.497Z,23.58
2017-06-04T06:31:27.934Z,23.65
2017-06-04T06:32:29.422Z,23.66
2017-06-04T06:33:30.855Z,23.54
2017-06-04T06:34:32.297Z,23.63
2017-06-04T06:35:33.732Z,23.63
2017-06-04T06:36:35.174Z,23.63
2017-06-04T06:37:36.637Z,23.60
2017-06-04T06:38:38.047Z,23.58
2017-06-04T06:39:39.489Z,23.65
2017-06-04T06:40:40.926Z,23.53
2017-06-04T06:41:42.364Z,23.57
2017-06-04T06:42:43.801Z,23.55
2017-06-04T06:43:45.268Z,23.65
2017-06-04T06:44:46.729Z,23.65
2017-06-04T06:45:48.168Z,23.55
2017-06-04T06:46:49.616Z,23.55
2017-06-04T06:47:51.051Z,23.57
2017-06-04T06:48:52.481Z,23.55
2017-06-04T06:49:53.923Z,23.50
2017-06-04T06:50:55.353Z,23.53
2017-06-04T06:51:56.822Z,23.51
2017-06-04T06:52:58.254Z,23.54
2017-06-04T06:53:59.699Z,23.55
2017-06-04T06:55:01.138Z,23.53
2017-06-04T06:56:02.582Z,23.53
2017-06-04T06:57:04.019Z,23.60
2017-06-04T06:58:05.456Z,23.53
2017-06-04T06:59:06.921Z,23.61
2017-06-04T07:00:08.361Z,23.61
2017-06-04T07:01:09.801Z,23.60
2017-06-04T07:02:11.235Z,23.61
2017-06-04T07:03:12.672Z,23.58
2017-06-04T07:04:14.109Z,23.60
2017-06-04T07:05:15.543Z,23.60
2017-06-04T07:06:16.985Z,23.60
2017-06-04T07:07:18.424Z,23.53
2017-06-04T07:08:19.864Z,23.63
2017-06-04T07:09:21.304Z,23.60
2017-06-04T07:10:22.813Z,23.51
2017-06-04T07:11:24.249Z,23.54
2017-06-04T07:12:25.689Z,23.58
2017-06-04T07:13:27.131Z,23.50
2017-06-04T07:14:28.568Z,23.55
2017-06-04T07:15:30.003Z,23.60
2017-06-04T07:16:31.481Z,23.53
2017-06-04T07:17:32.912Z,23.61
2017-06-04T07:18:34.351Z,23.57
2017-06-04T07:19:35.792Z,23.53
2017-06-04T07:20:37.234Z,23.61
2017-06-04T07:21:38.667Z,23.63
2017-06-04T07:22:40.106Z,23.60
2017-06-04T07:23:41.541Z,23.63
2017-06-04T07:24:43.027Z,23.60
2017-06-04T07:25:44.470Z,23.60
2017-06-04T07:26:45.907Z,23.65
2017-06-04T07:27:47.349Z,23.60
2017-06-04T07:28:48.784Z,23.51
2017-06-04T07:29:50.220Z,23.53
2017-06-04T07:30:51.656Z,23.54
2017-06-04T07:31:53.104Z,23.60
2017-06-04T07:32:54.536Z,23.63
2017-06-04T07:33:55.966Z,23.57
2017-06-04T07:34:57.399Z,23.60
2017-06-04T07:35:58.876Z,23.61
2017-06-04T07:37:00.310Z,23.51
2017-06-04T07:38:01.750Z,23.58
2017-06-04T07:39:03.188Z,23.55
2017-06-04T07:40:04.630Z,23.54
2017-06-04T07:41:06.077Z,23.53
2017-06-04T07:42:07.514Z,23.50
2017-06-04T07:43:09.005Z,23.51
2017-06-04T07:44:10.439Z,23.50
2017-06-04T07:45:11.872Z,23.51
2017-06-04T07:46:13.305Z,23.46
2017-06-04T07:47:14.748Z,23.50
2017-06-04T07:48:16.187Z,23.53
2017-06-04T07:49:17.620Z,23.53
2017-06-04T07:50:19.093Z,23.51
2017-06-04T07:51:20.537Z,23.48
2017-06-04T07:52:21.980Z,23.46
2017-06-04T07:53:23.415Z,23.48
2017-06-04T07:54:24.845Z,23.53
2017-06-04T07:55:26.278Z,23.42
2017-06-04T07:56:27.720Z,23.43
2017-06-04T07:57:29.161Z,23.38
2017-06-04T07:58:30.601Z,23.47
2017-06-04T07:59:32.036Z,23.46
2017-06-04T08:00:33.466Z,23.47
2017-06-04T08:01:34.906Z,23.48
2017-06-04T08:02:36.343Z,23.48
2017-06-04T08:03:37.787Z,23.40
2017-06-04T08:04:39.224Z,23.39
2017-06-04T08:05:40.664Z,23.42
2017-06-04T08:06:42.097Z,23.43
2017-06-04T08:07:43.535Z,23.36
2017-06-04T08:08:45.068Z,23.36
2017-06-04T08:09:46.505Z,23.43
2017-06-04T08:10:47.941Z,23.40
2017-06-04T08:11:49.383Z,23.36
2017-06-04T08:12:50.823Z,23.42
2017-06-04T08:13:52.259Z,23.38
2017-06-04T08:14:53.693Z,23.39
2017-06-04T08:15:55.144Z,23.39
2017-06-04T08:16:56.612Z,23.33
2017-06-04T08:17:58.049Z,23.36
2017-06-04T08:18:59.488Z,23.35
2017-06-04T08:20:00.925Z,23.32
2017-06-04T08:21:02.373Z,23.38
2017-06-04T08:22:03.812Z,23.43
2017-06-04T08:23:05.286Z,23.33
2017-06-04T08:24:06.733Z,23.42
2017-06-04T08:25:08.173Z,23.38
2017-06-04T08:26:09.611Z,23.31
2017-06-04T08:27:11.054Z,23.35
2017-06-04T08:28:12.487Z,23.35
2017-06-04T08:29:13.922Z,23.39
2017-06-04T08:30:15.359Z,23.33
2017-06-04T08:31:16.805Z,23.40
2017-06-04T08:32:18.240Z,23.36
2017-06-04T08:33:19.676Z,23.38
2017-06-04T08:34:21.110Z,23.43
2017-06-04T08:35:22.547Z,23.40
2017-06-04T08:36:23.977Z,23.42
2017-06-04T08:37:25.422Z,23.50
2017-06-04T08:38:26.913Z,23.46
2017-06-04T08:39:28.355Z,23.46
2017-06-04T08:40:29.789Z,23.47
2017-06-04T08:41:31.231Z,23.43
2017-06-04T08:42:32.674Z,23.48
2017-06-04T08:43:34.107Z,23.48
2017-06-04T08:44:35.549Z,23.47
2017-06-04T08:45:36.987Z,23.46
2017-06-04T08:46:38.431Z,23.46
2017-06-04T08:47:39.863Z,23.47
2017-06-04T08:48:41.415Z,23.46
2017-06-04T08:49:42.863Z,23.42
2017-06-04T08:50:44.297Z,23.47
2017-06-04T08:51:45.737Z,23.50
2017-06-04T08:52:47.231Z,23.50
2017-06-04T08:53:48.669Z,23.46
2017-06-04T08:54:50.108Z,23.47
2017-06-04T08:55:51.548Z,23.48
2017-06-04T08:56:52.989Z,23.47
2017-06-04T08:57:54.420Z,23.46
2017-06-04T08:58:55.857Z,23.46
2017-06-04T08:59:57.292Z,23.48
2017-06-04T09:00:58.734Z,23.46
2017-06-04T09:02:00.170Z,23.47
2017-06-04T09:03:01.603Z,23.36
2017-06-04T09:04:03.044Z,23.48
2017-06-04T09:05:04.479Z,23.46
2017-06-04T09:06:05.913Z,23.46
2017-06-04T09:07:07.358Z,23.46
2017-06-04T09:08:08.799Z,23.43
2017-06-04T09:09:10.241Z,23.40
2017-06-04T09:10:11.685Z,23.39
2017-06-04T09:11:13.131Z,23.46
2017-06-04T09:12:14.564Z,23.39
2017-06-04T09:13:16.001Z,23.43
2017-06-04T09:14:17.438Z,23.46
2017-06-04T09:15:18.883Z,23.42
2017-06-04T09:16:20.325Z,23.48
2017-06-04T09:17:21.760Z,23.50
2017-06-04T09:18:23.206Z,23.50
2017-06-04T09:19:24.653Z,23.54
2017-06-04T09:20:26.090Z,23.51
2017-06-04T09:21:27.534Z,23.60
2017-06-04T09:22:28.975Z,23.54
2017-06-04T09:23:30.414Z,23.53
2017-06-04T09:24:31.848Z,23.55
2017-06-04T09:25:33.296Z,23.51
2017-06-04T09:26:34.735Z,23.54
2017-06-04T09:27:36.166Z,23.57
2017-06-04T09:28:37.621Z,23.63
2017-06-04T09:29:39.173Z,23.61
2017-06-04T09:30:40.612Z,23.58
2017-06-04T09:31:42.059Z,23.63
2017-06-04T09:32:43.509Z,23.54
2017-06-04T09:33:44.949Z,23.65
2017-06-04T09:34:46.386Z,23.55
2017-06-04T09:35:47.817Z,23.63
2017-06-04T09:36:49.269Z,23.54
2017-06-04T09:37:50.727Z,23.58
2017-06-04T09:38:52.165Z,23.57
2017-06-04T09:39:53.607Z,23.61
2017-06-04T09:40:55.053Z,23.57
2017-06-04T09:41:56.494Z,23.55
2017-06-04T09:42:57.935Z,23.65
2017-06-04T09:43:59.381Z,23.61
2017-06-04T09:45:00.849Z,23.55
2017-06-04T09:46:02.286Z,23.63
2017-06-04T09:47:03.728Z,23.63
2017-06-04T09:48:05.171Z,23.65
2017-06-04T09:49:06.601Z,23.53
2017-06-04T09:50:08.040Z,23.63
2017-06-04T09:51:09.478Z,23.55
2017-06-04T09:52:10.912Z,23.60
2017-06-04T09:53:12.353Z,23.63
2017-06-04T09:54:13.797Z,23.65
2017-06-04T09:55:15.234Z,23.63
2017-06-04T09:56:16.683Z,23.58
2017-06-04T09:57:18.118Z,23.63
2017-06-04T09:58:19.559Z,23.65
2017-06-04T09:59:20.997Z,23.55
2017-06-04T10:00:22.432Z,23.60
2017-06-04T10:01:23.866Z,23.65
2017-06-04T10:02:25.306Z,23.61
2017-06-04T10:03:26.742Z,23.61
2017-06-04T10:04:28.180Z,23.61
2017-06-04T10:05:29.614Z,23.57
2017-06-04T10:06:31.052Z,23.58
2017-06-04T10:07:32.501Z,23.61
2017-06-04T10:08:33.943Z,23.63
2017-06-04T10:09:35.375Z,23.58
2017-06-04T10:10:36.814Z,23.55
2017-06-04T10:11:38.241Z,23.65
2017-06-04T10:12:39.675Z,23.63
2017-06-04T10:13:41.111Z,23.60
2017-06-04T10:14:42.609Z,23.58
2017-06-04T10:15:44.049Z,23.58
2017-06-04T10:16:45.487Z,23.63
2017-06-04T10:17:47.067Z,23.60
2017-06-04T10:18:48.498Z,23.57
2017-06-04T10:19:49.938Z,23.55
2017-06-04T10:20:51.373Z,23.53
2017-06-04T10:21:52.813Z,23.68
2017-06-04T10:22:54.245Z,23.68
2017-06-04T10:23:55.684Z,23.66
2017-06-04T10:24:57.233Z,23.63
2017-06-04T10:25:58.654Z,23.69
2017-06-04T10:27:00.101Z,23.72
2017-06-04T10:28:01.544Z,23.75
2017-06-04T10:29:02.982Z,23.66
2017-06-04T10:30:04.417Z,23.63
2017-06-04T10:31:05.851Z,23.73
2017-06-04T10:32:07.286Z,23.68
2017-06-04T10:33:08.715Z,23.73
2017-06-04T10:34:10.157Z,23.70
2017-06-04T10:35:11.604Z,23.65
2017-06-04T10:36:13.045Z,23.66
2017-06-04T10:37:14.491Z,23.68
2017-06-04T10:38:15.923Z,23.70
2017-06-04T10:39:17.366Z,23.70
2017-06-04T10:40:18.806Z,23.68
2017-06-04T10:41:20.242Z,23.69
2017-06-04T10:42:21.690Z,23.78
2017-06-04T10:43:23.131Z,23.72
2017-06-04T10:44:24.575Z,23.72
2017-06-04T10:45:26.017Z,23.73
2017-06-04T10:46:27.454Z,23.69
2017-06-04T10:47:28.897Z,23.72
2017-06-04T10:48:30.330Z,23.83
2017-06-04T10:49:31.759Z,23.75
2017-06-04T10:50:33.208Z,23.83
2017-06-04T10:51:34.650Z,23.75
2017-06-04T10:52:36.088Z,23.78
2017-06-04T10:53:37.538Z,23.80
2017-06-04T10:54:38.979Z,23.87
2017-06-04T10:55:40.415Z,23.87
2017-06-04T10:56:41.870Z,23.84
2017-06-04T10:57:43.309Z,23.90
2017-06-04T10:58:44.750Z,23.84
2017-06-04T10:59:46.179Z,23.87
2017-06-04T11:00:47.612Z,23.84
2017-06-04T11:01:49.050Z,23.84
2017-06-04T11:02:50.487Z,23.83
2017-06-04T11:03:51.930Z,23.84
2017-06-04T11:04:53.400Z,23.93
2017-06-04T11:05:54.843Z,23.87
2017-06-04T11:06:56.279Z,23.93
2017-06-04T11:07:57.716Z,23.88
2017-06-04T11:08:59.157Z,23.94
2017-06-04T11:10:00.601Z,23.94
2017-06-04T11:11:02.041Z,23.95
2017-06-04T11:12:03.482Z,23.98
2017-06-04T11:13:04.926Z,23.97
2017-06-04T11:14:06.386Z,23.95
2017-06-04T11:15:07.802Z,23.94
2017-06-04T11:16:09.238Z,23.91
2017-06-04T11:17:10.676Z,24.02
2017-06-04T11:18:12.112Z,24.00
2017-06-04T11:19:13.557Z,23.98
2017-06-04T11:20:15.001Z,24.03
2017-06-04T11:21:16.445Z,24.00
2017-06-04T11:22:17.878Z,24.00
2017-06-04T11:23:19.322Z,24.02
2017-06-04T11:24:20.763Z,24.00
2017-06-04T11:25:22.212Z,24.05
2017-06-04T11:26:23.657Z,23.97
2017-06-04T11:27:25.168Z,23.98
2017-06-04T11:28:26.604Z,24.05
2017-06-04T11:29:28.048Z,23.95
2017-06-04T11:30:29.494Z,24.03
2017-06-04T11:31:30.941Z,24.10
2017-06-04T11:32:32.380Z,24.03
2017-06-04T11:33:33.818Z,24.02
2017-06-04T11:34:35.262Z,24.02
2017-06-04T11:35:36.701Z,24.00
2017-06-04T11:36:38.142Z,24.02
2017-06-04T11:37:39.581Z,24.12
2017-06-04T11:38:41.017Z,24.12
2017-06-04T11:39:42.468Z,24.06
2017-06-04T11:40:43.911Z,24.08
2017-06-04T11:41:45.347Z,24.06
2017-06-04T11:42:46.843Z,24.13
2017-06-04T11:43:48.273Z,24.21
2017-06-04T11:44:49.713Z,24.10
2017-06-04T11:45:51.158Z,24.16
2017-06-04T11:46:52.593Z,24.13
2017-06-04T11:47:54.027Z,24.13
2017-06-04T11:48:55.473Z,24.16
2017-06-04T11:49:56.904Z,24.15
2017-06-04T11:50:58.342Z,24.20
2017-06-04T11:51:59.780Z,24.13
2017-06-04T11:53:01.227Z,24.20
2017-06-04T11:54:02.667Z,24.21
2017-06-04T11:55:04.108Z,24.15
2017-06-04T11:56:05.548Z,24.22
2017-06-04T11:57:06.986Z,24.13
2017-06-04T11:58:08.429Z,24.25
2017-06-04T11:59:09.866Z,24.22
2017-06-04T12:00:11.311Z,24.18
2017-06-04T12:01:12.757Z,24.27
2017-06-04T12:02:14.197Z,24.20
2017-06-04T12:03:15.646Z,24.20
2017-06-04T12:04:17.083Z,24.25
2017-06-04T12:05:18.515Z,24.27
2017-06-04T12:06:19.971Z,24.22
2017-06-04T12:07:21.413Z,24.25
2017-06-04T12:08:22.867Z,24.27
2017-06-04T12:09:24.301Z,24.27
2017-06-04T12:10:25.736Z,24.25
2017-06-04T12:11:27.177Z,24.32
2017-06-04T12:12:28.602Z,24.25
2017-06-04T12:13:30.037Z,24.24
2017-06-04T12:14:31.467Z,24.28
2017-06-04T12:15:32.906Z,24.30
2017-06-04T12:16:34.345Z,24.32
2017-06-04T12:17:35.788Z,24.25
2017-06-04T12:18:37.230Z,24.24
2017-06-04T12:19:38.668Z,24.27
2017-06-04T12:20:40.098Z,24.27
2017-06-04T12:21:41.543Z,24.32
2017-06-04T12:22:42.976Z,24.25
2017-06-04T12:23:44.420Z,24.27
2017-06-04T12:24:45.860Z,24.43
2017-06-04T12:25:47.296Z,24.43
2017-06-04T12:26:48.731Z,24.46
2017-06-04T12:27:50.162Z,24.45
2017-06-04T12:28:51.617Z,24.39
2017-06-04T12:29:53.057Z,24.45
2017-06-04T12:30:54.495Z,24.30
2017-06-04T12:31:55.931Z,24.40
2017-06-04T12:32:57.367Z,24.46
2017-06-04T12:33:58.801Z,24.37
2017-06-04T12:35:00.233Z,24.39
2017-06-04T12:36:01.669Z,24.31
2017-06-04T12:37:03.102Z,24.35
2017-06-04T12:38:04.537Z,24.37
2017-06-04T12:39:05.979Z,24.39
2017-06-04T12:40:07.416Z,24.40
2017-06-04T12:41:08.860Z,24.40
2017-06-04T12:42:10.294Z,24.40
2017-06-04T12:43:11.727Z,24.40
2017-06-04T12:44:13.170Z,24.35
2017-06-04T12:45:14.603Z,24.42
2017-06-04T12:46:16.044Z,24.40
2017-06-04T12:47:17.472Z,24.42
2017-06-04T12:48:18.909Z,24.45
2017-06-04T12:49:20.362Z,24.40
2017-06-04T12:50:21.797Z,24.42
2017-06-04T12:51:23.244Z,24.45
2017-06-04T12:52:24.683Z,24.45
2017-06-04T12:53:26.128Z,24.40
2017-06-04T12:54:27.569Z,24.42
2017-06-04T12:55:29.008Z,24.40
2017-06-04T12:56:30.449Z,24.40
2017-06-04T12:57:31.889Z,24.50
2017-06-04T12:58:33.333Z,24.47
2017-06-04T12:59:34.779Z,24.47
2017-06-04T13:00:36.221Z,24.49
2017-06-04T13:01:37.662Z,24.49
2017-06-04T13:02:39.099Z,24.49
2017-06-04T13:03:40.537Z,24.45
2017-06-04T13:04:41.980Z,24.47
2017-06-04T13:05:43.427Z,24.46
2017-06-04T13:06:44.874Z,24.49
2017-06-04T13:07:46.309Z,24.53
2017-06-04T13:08:47.751Z,24.53
2017-06-04T13:09:49.201Z,24.55
2017-06-04T13:10:50.632Z,24.53